sensor_id;sensor_type;location;lat;lon;timestamp;P1;durP1;ratioP1;P2;durP2;ratioP2
15878;SDS011;61999;51.514;14.614;2023-03-14T00:01:08;1.33;;;1.10;;
15878;SDS011;61999;51.514;14.614;2023-03-14T00:03:38;1.00;;;1.00;;
15878;SDS011;61999;51.514;14.614;2023-03-14T00:06:06;1.83;;;1.00;;
15878;SDS011;61999;51.514;14.614;2023-03-14T00:08:37;1.00;;;0.90;;
15878;SDS011;61999;51.514;14.614;2023-03-14T00:11:06;1.30;;;0.80;;
15878;SDS011;61999;51.514;14.614;2023-03-14T00:13:36;2.17;;;1.10;;
15878;SDS011;61999;51.514;14.614;2023-03-14T00:16:05;1.53;;;0.90;;
15878;SDS011;61999;51.514;14.614;2023-03-14T00:18:35;0.90;;;0.90;;
15878;SDS011;61999;51.514;14.614;2023-03-14T00:21:04;1.10;;;1.00;;
15878;SDS011;61999;51.514;14.614;2023-03-14T00:23:35;2.30;;;1.10;;
15878;SDS011;61999;51.514;14.614;2023-03-14T00:26:08;1.27;;;1.10;;
15878;SDS011;61999;51.514;14.614;2023-03-14T00:28:38;1.27;;;1.13;;
15878;SDS011;61999;51.514;14.614;2023-03-14T00:31:08;1.57;;;1.10;;
15878;SDS011;61999;51.514;14.614;2023-03-14T00:33:38;1.37;;;1.20;;
15878;SDS011;61999;51.514;14.614;2023-03-14T00:36:07;1.37;;;1.27;;
15878;SDS011;61999;51.514;14.614;2023-03-14T00:38:39;1.37;;;1.27;;
15878;SDS011;61999;51.514;14.614;2023-03-14T00:41:09;2.50;;;1.60;;
15878;SDS011;61999;51.514;14.614;2023-03-14T00:43:40;1.97;;;1.87;;
15878;SDS011;61999;51.514;14.614;2023-03-14T00:46:08;2.33;;;1.73;;
15878;SDS011;61999;51.514;14.614;2023-03-14T00:48:37;2.00;;;1.80;;
15878;SDS011;61999;51.514;14.614;2023-03-14T00:51:06;2.60;;;1.83;;
15878;SDS011;61999;51.514;14.614;2023-03-14T00:53:38;3.50;;;1.97;;
15878;SDS011;61999;51.514;14.614;2023-03-14T00:56:08;1.80;;;1.70;;
15878;SDS011;61999;51.514;14.614;2023-03-14T00:58:39;1.67;;;1.57;;
15878;SDS011;61999;51.514;14.614;2023-03-14T01:01:07;1.70;;;1.60;;
15878;SDS011;61999;51.514;14.614;2023-03-14T01:03:39;1.60;;;1.50;;
15878;SDS011;61999;51.514;14.614;2023-03-14T01:06:11;2.53;;;2.33;;
15878;SDS011;61999;51.514;14.614;2023-03-14T01:08:43;2.30;;;2.10;;
15878;SDS011;61999;51.514;14.614;2023-03-14T01:11:12;2.57;;;2.00;;
15878;SDS011;61999;51.514;14.614;2023-03-14T01:13:44;4.33;;;3.60;;
15878;SDS011;61999;51.514;14.614;2023-03-14T01:16:13;4.77;;;3.93;;
15878;SDS011;61999;51.514;14.614;2023-03-14T01:18:41;9.43;;;7.93;;
15878;SDS011;61999;51.514;14.614;2023-03-14T01:21:12;6.70;;;6.00;;
15878;SDS011;61999;51.514;14.614;2023-03-14T01:23:44;11.70;;;10.37;;
15878;SDS011;61999;51.514;14.614;2023-03-14T01:26:14;6.20;;;5.63;;
15878;SDS011;61999;51.514;14.614;2023-03-14T01:28:46;4.43;;;4.03;;
15878;SDS011;61999;51.514;14.614;2023-03-14T01:31:16;4.50;;;4.10;;
15878;SDS011;61999;51.514;14.614;2023-03-14T01:33:45;4.40;;;4.00;;
15878;SDS011;61999;51.514;14.614;2023-03-14T01:36:13;5.67;;;4.83;;
15878;SDS011;61999;51.514;14.614;2023-03-14T01:38:42;4.87;;;4.07;;
15878;SDS011;61999;51.514;14.614;2023-03-14T01:41:13;4.60;;;4.20;;
15878;SDS011;61999;51.514;14.614;2023-03-14T01:43:44;5.47;;;4.80;;
15878;SDS011;61999;51.514;14.614;2023-03-14T01:46:17;4.73;;;4.30;;
15878;SDS011;61999;51.514;14.614;2023-03-14T01:48:59;4.70;;;4.23;;
15878;SDS011;61999;51.514;14.614;2023-03-14T01:51:35;5.60;;;4.40;;
15878;SDS011;61999;51.514;14.614;2023-03-14T01:54:12;4.37;;;3.97;;
15878;SDS011;61999;51.514;14.614;2023-03-14T01:56:50;4.33;;;3.93;;
15878;SDS011;61999;51.514;14.614;2023-03-14T01:59:24;4.43;;;4.03;;
15878;SDS011;61999;51.514;14.614;2023-03-14T02:01:56;4.47;;;4.07;;
15878;SDS011;61999;51.514;14.614;2023-03-14T02:04:25;4.83;;;4.17;;
15878;SDS011;61999;51.514;14.614;2023-03-14T02:07:00;5.13;;;4.00;;
15878;SDS011;61999;51.514;14.614;2023-03-14T02:09:35;4.17;;;3.77;;
15878;SDS011;61999;51.514;14.614;2023-03-14T02:12:07;5.33;;;4.37;;
15878;SDS011;61999;51.514;14.614;2023-03-14T02:14:38;3.83;;;3.53;;
15878;SDS011;61999;51.514;14.614;2023-03-14T02:17:08;4.90;;;4.50;;
15878;SDS011;61999;51.514;14.614;2023-03-14T02:19:41;5.03;;;4.40;;
15878;SDS011;61999;51.514;14.614;2023-03-14T02:22:24;4.73;;;4.27;;
15878;SDS011;61999;51.514;14.614;2023-03-14T02:24:55;6.53;;;4.40;;
15878;SDS011;61999;51.514;14.614;2023-03-14T02:27:35;3.97;;;3.67;;
15878;SDS011;61999;51.514;14.614;2023-03-14T02:30:04;4.53;;;3.80;;
15878;SDS011;61999;51.514;14.614;2023-03-14T02:32:37;4.30;;;3.90;;
15878;SDS011;61999;51.514;14.614;2023-03-14T02:35:12;4.13;;;3.80;;
15878;SDS011;61999;51.514;14.614;2023-03-14T02:37:47;3.90;;;3.50;;
15878;SDS011;61999;51.514;14.614;2023-03-14T02:40:20;4.77;;;4.00;;
15878;SDS011;61999;51.514;14.614;2023-03-14T02:42:50;3.70;;;3.33;;
15878;SDS011;61999;51.514;14.614;2023-03-14T02:48:16;3.47;;;3.17;;
15878;SDS011;61999;51.514;14.614;2023-03-14T02:50:48;4.23;;;3.83;;
15878;SDS011;61999;51.514;14.614;2023-03-14T02:53:20;4.30;;;3.10;;
15878;SDS011;61999;51.514;14.614;2023-03-14T02:55:52;4.53;;;3.73;;
15878;SDS011;61999;51.514;14.614;2023-03-14T02:58:21;3.63;;;3.33;;
15878;SDS011;61999;51.514;14.614;2023-03-14T03:00:50;3.50;;;3.20;;
15878;SDS011;61999;51.514;14.614;2023-03-14T03:03:18;3.50;;;3.20;;
15878;SDS011;61999;51.514;14.614;2023-03-14T03:05:47;2.93;;;2.67;;
15878;SDS011;61999;51.514;14.614;2023-03-14T03:08:16;3.70;;;2.77;;
15878;SDS011;61999;51.514;14.614;2023-03-14T03:10:44;3.03;;;2.70;;
15878;SDS011;61999;51.514;14.614;2023-03-14T03:13:12;4.07;;;3.00;;
15878;SDS011;61999;51.514;14.614;2023-03-14T03:15:42;4.57;;;3.37;;
15878;SDS011;61999;51.514;14.614;2023-03-14T03:18:10;4.83;;;3.10;;
15878;SDS011;61999;51.514;14.614;2023-03-14T03:20:38;4.30;;;2.90;;
15878;SDS011;61999;51.514;14.614;2023-03-14T03:23:06;2.87;;;2.57;;
15878;SDS011;61999;51.514;14.614;2023-03-14T03:25:34;3.03;;;2.80;;
15878;SDS011;61999;51.514;14.614;2023-03-14T03:28:02;3.03;;;2.73;;
15878;SDS011;61999;51.514;14.614;2023-03-14T03:30:36;2.70;;;2.30;;
15878;SDS011;61999;51.514;14.614;2023-03-14T03:33:06;2.57;;;2.30;;
15878;SDS011;61999;51.514;14.614;2023-03-14T03:35:35;3.43;;;2.50;;
15878;SDS011;61999;51.514;14.614;2023-03-14T03:38:10;3.80;;;2.70;;
15878;SDS011;61999;51.514;14.614;2023-03-14T03:40:38;2.63;;;2.43;;
15878;SDS011;61999;51.514;14.614;2023-03-14T03:43:06;3.67;;;2.60;;
15878;SDS011;61999;51.514;14.614;2023-03-14T03:45:34;2.60;;;2.37;;
15878;SDS011;61999;51.514;14.614;2023-03-14T03:48:03;2.40;;;2.20;;
15878;SDS011;61999;51.514;14.614;2023-03-14T03:50:32;3.13;;;2.20;;
15878;SDS011;61999;51.514;14.614;2023-03-14T03:53:00;2.07;;;1.90;;
15878;SDS011;61999;51.514;14.614;2023-03-14T03:55:28;3.37;;;2.17;;
15878;SDS011;61999;51.514;14.614;2023-03-14T03:57:56;2.20;;;2.00;;
15878;SDS011;61999;51.514;14.614;2023-03-14T04:00:24;2.07;;;1.87;;
15878;SDS011;61999;51.514;14.614;2023-03-14T04:02:52;5.40;;;1.80;;
15878;SDS011;61999;51.514;14.614;2023-03-14T04:05:20;2.10;;;1.90;;
15878;SDS011;61999;51.514;14.614;2023-03-14T04:07:50;2.27;;;2.00;;
15878;SDS011;61999;51.514;14.614;2023-03-14T04:10:18;2.20;;;2.00;;
15878;SDS011;61999;51.514;14.614;2023-03-14T04:12:45;1.80;;;1.70;;
15878;SDS011;61999;51.514;14.614;2023-03-14T04:15:13;1.57;;;1.47;;
15878;SDS011;61999;51.514;14.614;2023-03-14T04:17:41;1.57;;;1.47;;
15878;SDS011;61999;51.514;14.614;2023-03-14T04:20:10;2.00;;;1.30;;
15878;SDS011;61999;51.514;14.614;2023-03-14T04:22:39;1.30;;;1.20;;
15878;SDS011;61999;51.514;14.614;2023-03-14T04:25:11;1.53;;;1.00;;
15878;SDS011;61999;51.514;14.614;2023-03-14T04:27:38;1.30;;;1.13;;
15878;SDS011;61999;51.514;14.614;2023-03-14T04:30:07;1.27;;;1.10;;
15878;SDS011;61999;51.514;14.614;2023-03-14T04:32:38;2.30;;;1.03;;
15878;SDS011;61999;51.514;14.614;2023-03-14T04:35:07;2.17;;;1.10;;
15878;SDS011;61999;51.514;14.614;2023-03-14T04:37:35;0.80;;;0.80;;
15878;SDS011;61999;51.514;14.614;2023-03-14T04:40:04;1.00;;;1.00;;
15878;SDS011;61999;51.514;14.614;2023-03-14T04:42:35;0.80;;;0.80;;
15878;SDS011;61999;51.514;14.614;2023-03-14T04:45:03;0.80;;;0.80;;
15878;SDS011;61999;51.514;14.614;2023-03-14T04:47:32;0.77;;;0.77;;
15878;SDS011;61999;51.514;14.614;2023-03-14T04:50:01;0.53;;;0.53;;
15878;SDS011;61999;51.514;14.614;2023-03-14T04:52:29;0.97;;;0.87;;
15878;SDS011;61999;51.514;14.614;2023-03-14T04:54:57;1.53;;;0.77;;
15878;SDS011;61999;51.514;14.614;2023-03-14T04:57:25;0.70;;;0.70;;
15878;SDS011;61999;51.514;14.614;2023-03-14T04:59:55;1.27;;;0.70;;
15878;SDS011;61999;51.514;14.614;2023-03-14T05:02:23;0.80;;;0.77;;
15878;SDS011;61999;51.514;14.614;2023-03-14T05:04:51;0.60;;;0.60;;
15878;SDS011;61999;51.514;14.614;2023-03-14T05:07:19;0.60;;;0.60;;
15878;SDS011;61999;51.514;14.614;2023-03-14T05:09:47;0.70;;;0.70;;
15878;SDS011;61999;51.514;14.614;2023-03-14T05:12:15;0.60;;;0.60;;
15878;SDS011;61999;51.514;14.614;2023-03-14T05:14:43;0.70;;;0.50;;
15878;SDS011;61999;51.514;14.614;2023-03-14T05:17:12;0.60;;;0.60;;
15878;SDS011;61999;51.514;14.614;2023-03-14T05:19:40;0.63;;;0.50;;
15878;SDS011;61999;51.514;14.614;2023-03-14T05:22:08;0.73;;;0.60;;
15878;SDS011;61999;51.514;14.614;2023-03-14T05:24:38;0.93;;;0.77;;
15878;SDS011;61999;51.514;14.614;2023-03-14T05:27:06;1.63;;;0.57;;
15878;SDS011;61999;51.514;14.614;2023-03-14T05:29:34;0.60;;;0.60;;
15878;SDS011;61999;51.514;14.614;2023-03-14T05:32:02;2.20;;;0.70;;
15878;SDS011;61999;51.514;14.614;2023-03-14T05:34:31;0.60;;;0.60;;
15878;SDS011;61999;51.514;14.614;2023-03-14T05:36:59;0.80;;;0.80;;
15878;SDS011;61999;51.514;14.614;2023-03-14T05:39:27;0.70;;;0.70;;
15878;SDS011;61999;51.514;14.614;2023-03-14T05:41:55;0.97;;;0.73;;
15878;SDS011;61999;51.514;14.614;2023-03-14T05:44:23;1.23;;;0.60;;
15878;SDS011;61999;51.514;14.614;2023-03-14T05:46:51;1.00;;;0.80;;
15878;SDS011;61999;51.514;14.614;2023-03-14T05:49:20;0.67;;;0.60;;
15878;SDS011;61999;51.514;14.614;2023-03-14T05:51:49;1.03;;;0.60;;
15878;SDS011;61999;51.514;14.614;2023-03-14T05:54:17;0.60;;;0.60;;
15878;SDS011;61999;51.514;14.614;2023-03-14T05:56:45;2.07;;;0.90;;
15878;SDS011;61999;51.514;14.614;2023-03-14T05:59:13;1.03;;;0.60;;
15878;SDS011;61999;51.514;14.614;2023-03-14T06:01:41;1.10;;;0.90;;
15878;SDS011;61999;51.514;14.614;2023-03-14T06:04:09;0.70;;;0.70;;
15878;SDS011;61999;51.514;14.614;2023-03-14T06:06:37;1.33;;;1.13;;
15878;SDS011;61999;51.514;14.614;2023-03-14T06:09:06;0.70;;;0.60;;
15878;SDS011;61999;51.514;14.614;2023-03-14T06:11:34;1.70;;;1.13;;
15878;SDS011;61999;51.514;14.614;2023-03-14T06:14:02;1.43;;;0.93;;
15878;SDS011;61999;51.514;14.614;2023-03-14T06:16:30;1.50;;;0.93;;
15878;SDS011;61999;51.514;14.614;2023-03-14T06:18:58;0.90;;;0.90;;
15878;SDS011;61999;51.514;14.614;2023-03-14T06:21:26;1.40;;;0.70;;
15878;SDS011;61999;51.514;14.614;2023-03-14T06:23:54;0.83;;;0.70;;
15878;SDS011;61999;51.514;14.614;2023-03-14T06:26:24;2.23;;;1.00;;
15878;SDS011;61999;51.514;14.614;2023-03-14T06:28:51;1.77;;;0.80;;
15878;SDS011;61999;51.514;14.614;2023-03-14T06:31:19;1.27;;;0.80;;
15878;SDS011;61999;51.514;14.614;2023-03-14T06:33:48;1.50;;;1.00;;
15878;SDS011;61999;51.514;14.614;2023-03-14T06:36:16;1.37;;;0.80;;
15878;SDS011;61999;51.514;14.614;2023-03-14T06:38:44;1.60;;;0.70;;
15878;SDS011;61999;51.514;14.614;2023-03-14T06:41:11;2.30;;;0.80;;
15878;SDS011;61999;51.514;14.614;2023-03-14T06:43:41;1.90;;;0.83;;
15878;SDS011;61999;51.514;14.614;2023-03-14T06:46:09;2.67;;;1.10;;
15878;SDS011;61999;51.514;14.614;2023-03-14T06:48:37;1.13;;;0.90;;
15878;SDS011;61999;51.514;14.614;2023-03-14T06:51:05;1.53;;;1.00;;
15878;SDS011;61999;51.514;14.614;2023-03-14T06:53:34;1.60;;;0.90;;
15878;SDS011;61999;51.514;14.614;2023-03-14T06:56:02;1.23;;;0.80;;
15878;SDS011;61999;51.514;14.614;2023-03-14T06:58:30;2.77;;;1.00;;
15878;SDS011;61999;51.514;14.614;2023-03-14T07:00:59;2.60;;;1.40;;
15878;SDS011;61999;51.514;14.614;2023-03-14T07:03:27;2.73;;;1.40;;
15878;SDS011;61999;51.514;14.614;2023-03-14T07:05:55;2.50;;;0.80;;
15878;SDS011;61999;51.514;14.614;2023-03-14T07:08:23;1.67;;;0.77;;
15878;SDS011;61999;51.514;14.614;2023-03-14T07:10:52;2.33;;;0.90;;
15878;SDS011;61999;51.514;14.614;2023-03-14T07:13:19;5.27;;;1.20;;
15878;SDS011;61999;51.514;14.614;2023-03-14T07:15:47;2.13;;;0.87;;
15878;SDS011;61999;51.514;14.614;2023-03-14T07:18:17;2.70;;;1.07;;
15878;SDS011;61999;51.514;14.614;2023-03-14T07:20:45;0.53;;;0.53;;
15878;SDS011;61999;51.514;14.614;2023-03-14T07:23:14;1.50;;;1.07;;
15878;SDS011;61999;51.514;14.614;2023-03-14T07:25:42;2.40;;;0.63;;
15878;SDS011;61999;51.514;14.614;2023-03-14T07:28:10;5.07;;;1.00;;
15878;SDS011;61999;51.514;14.614;2023-03-14T07:30:38;3.73;;;0.80;;
15878;SDS011;61999;51.514;14.614;2023-03-14T07:33:06;2.93;;;1.50;;
15878;SDS011;61999;51.514;14.614;2023-03-14T07:35:38;1.23;;;0.60;;
15878;SDS011;61999;51.514;14.614;2023-03-14T07:38:06;2.57;;;0.87;;
15878;SDS011;61999;51.514;14.614;2023-03-14T07:40:34;0.80;;;0.70;;
15878;SDS011;61999;51.514;14.614;2023-03-14T07:43:02;1.60;;;1.00;;
15878;SDS011;61999;51.514;14.614;2023-03-14T07:45:29;1.97;;;0.70;;
15878;SDS011;61999;51.514;14.614;2023-03-14T07:47:58;1.57;;;0.90;;
15878;SDS011;61999;51.514;14.614;2023-03-14T07:50:25;1.47;;;0.77;;
15878;SDS011;61999;51.514;14.614;2023-03-14T07:52:55;3.43;;;0.87;;
15878;SDS011;61999;51.514;14.614;2023-03-14T07:55:23;1.63;;;0.90;;
15878;SDS011;61999;51.514;14.614;2023-03-14T07:57:51;4.77;;;1.00;;
15878;SDS011;61999;51.514;14.614;2023-03-14T08:00:19;1.27;;;0.87;;
15878;SDS011;61999;51.514;14.614;2023-03-14T08:02:48;2.23;;;0.70;;
15878;SDS011;61999;51.514;14.614;2023-03-14T08:05:16;0.70;;;0.60;;
15878;SDS011;61999;51.514;14.614;2023-03-14T08:07:44;1.77;;;0.90;;
15878;SDS011;61999;51.514;14.614;2023-03-14T08:10:13;2.30;;;0.80;;
15878;SDS011;61999;51.514;14.614;2023-03-14T08:12:48;2.70;;;0.80;;
15878;SDS011;61999;51.514;14.614;2023-03-14T08:15:16;1.30;;;0.70;;
15878;SDS011;61999;51.514;14.614;2023-03-14T08:17:44;3.60;;;0.60;;
15878;SDS011;61999;51.514;14.614;2023-03-14T08:20:17;1.67;;;0.80;;
15878;SDS011;61999;51.514;14.614;2023-03-14T08:22:45;3.23;;;1.10;;
15878;SDS011;61999;51.514;14.614;2023-03-14T08:25:15;2.73;;;1.10;;
15878;SDS011;61999;51.514;14.614;2023-03-14T08:27:44;1.70;;;0.77;;
15878;SDS011;61999;51.514;14.614;2023-03-14T08:30:14;2.60;;;0.90;;
15878;SDS011;61999;51.514;14.614;2023-03-14T08:32:44;3.07;;;0.87;;
15878;SDS011;61999;51.514;14.614;2023-03-14T08:35:13;1.83;;;0.60;;
15878;SDS011;61999;51.514;14.614;2023-03-14T08:37:41;2.53;;;0.70;;
15878;SDS011;61999;51.514;14.614;2023-03-14T08:40:10;4.73;;;0.90;;
15878;SDS011;61999;51.514;14.614;2023-03-14T08:42:40;1.17;;;0.80;;
15878;SDS011;61999;51.514;14.614;2023-03-14T08:45:10;1.83;;;0.80;;
15878;SDS011;61999;51.514;14.614;2023-03-14T08:47:41;2.20;;;0.83;;
15878;SDS011;61999;51.514;14.614;2023-03-14T08:50:09;4.13;;;0.80;;
15878;SDS011;61999;51.514;14.614;2023-03-14T08:52:41;2.10;;;1.07;;
15878;SDS011;61999;51.514;14.614;2023-03-14T08:55:09;1.67;;;0.73;;
15878;SDS011;61999;51.514;14.614;2023-03-14T08:57:37;3.83;;;0.87;;
15878;SDS011;61999;51.514;14.614;2023-03-14T09:00:07;1.87;;;0.70;;
15878;SDS011;61999;51.514;14.614;2023-03-14T09:02:40;2.33;;;0.73;;
15878;SDS011;61999;51.514;14.614;2023-03-14T09:05:09;0.57;;;0.53;;
15878;SDS011;61999;51.514;14.614;2023-03-14T09:07:38;1.47;;;0.80;;
15878;SDS011;61999;51.514;14.614;2023-03-14T09:10:07;2.67;;;1.10;;
15878;SDS011;61999;51.514;14.614;2023-03-14T09:12:37;2.00;;;0.90;;
15878;SDS011;61999;51.514;14.614;2023-03-14T09:15:07;2.47;;;1.10;;
15878;SDS011;61999;51.514;14.614;2023-03-14T09:17:36;2.37;;;0.80;;
15878;SDS011;61999;51.514;14.614;2023-03-14T09:20:04;0.90;;;0.77;;
15878;SDS011;61999;51.514;14.614;2023-03-14T09:22:35;1.60;;;0.97;;
15878;SDS011;61999;51.514;14.614;2023-03-14T09:25:03;1.33;;;1.03;;
15878;SDS011;61999;51.514;14.614;2023-03-14T09:27:33;1.10;;;0.70;;
15878;SDS011;61999;51.514;14.614;2023-03-14T09:30:01;2.23;;;0.70;;
15878;SDS011;61999;51.514;14.614;2023-03-14T09:32:30;2.07;;;0.70;;
15878;SDS011;61999;51.514;14.614;2023-03-14T09:34:58;2.50;;;0.80;;
15878;SDS011;61999;51.514;14.614;2023-03-14T09:37:26;2.73;;;0.70;;
15878;SDS011;61999;51.514;14.614;2023-03-14T09:39:54;1.73;;;0.90;;
15878;SDS011;61999;51.514;14.614;2023-03-14T09:42:23;1.90;;;1.20;;
15878;SDS011;61999;51.514;14.614;2023-03-14T09:44:55;3.03;;;1.03;;
15878;SDS011;61999;51.514;14.614;2023-03-14T09:47:28;2.27;;;1.17;;
15878;SDS011;61999;51.514;14.614;2023-03-14T09:50:01;1.57;;;1.00;;
15878;SDS011;61999;51.514;14.614;2023-03-14T09:52:32;1.33;;;1.03;;
15878;SDS011;61999;51.514;14.614;2023-03-14T09:55:04;0.93;;;0.80;;
15878;SDS011;61999;51.514;14.614;2023-03-14T09:57:39;1.57;;;1.10;;
15878;SDS011;61999;51.514;14.614;2023-03-14T10:00:12;2.17;;;1.00;;
15878;SDS011;61999;51.514;14.614;2023-03-14T10:02:47;1.37;;;0.80;;
15878;SDS011;61999;51.514;14.614;2023-03-14T10:05:22;3.60;;;0.97;;
15878;SDS011;61999;51.514;14.614;2023-03-14T10:07:54;1.87;;;0.80;;
15878;SDS011;61999;51.514;14.614;2023-03-14T10:10:23;1.37;;;1.10;;
15878;SDS011;61999;51.514;14.614;2023-03-14T10:12:56;0.87;;;0.70;;
15878;SDS011;61999;51.514;14.614;2023-03-14T10:15:28;1.50;;;0.60;;
15878;SDS011;61999;51.514;14.614;2023-03-14T10:18:02;2.83;;;1.10;;
15878;SDS011;61999;51.514;14.614;2023-03-14T10:20:39;2.40;;;0.80;;
15878;SDS011;61999;51.514;14.614;2023-03-14T10:23:22;0.60;;;0.60;;
15878;SDS011;61999;51.514;14.614;2023-03-14T10:25:59;2.80;;;0.70;;
15878;SDS011;61999;51.514;14.614;2023-03-14T10:28:34;0.80;;;0.80;;
15878;SDS011;61999;51.514;14.614;2023-03-14T10:31:07;1.13;;;0.70;;
15878;SDS011;61999;51.514;14.614;2023-03-14T10:33:37;2.73;;;0.70;;
15878;SDS011;61999;51.514;14.614;2023-03-14T10:36:06;2.00;;;0.80;;
15878;SDS011;61999;51.514;14.614;2023-03-14T10:38:48;1.53;;;0.70;;
15878;SDS011;61999;51.514;14.614;2023-03-14T10:41:17;1.10;;;0.60;;
15878;SDS011;61999;51.514;14.614;2023-03-14T10:43:53;1.40;;;0.63;;
15878;SDS011;61999;51.514;14.614;2023-03-14T10:46:26;2.20;;;0.70;;
15878;SDS011;61999;51.514;14.614;2023-03-14T10:48:59;0.73;;;0.60;;
15878;SDS011;61999;51.514;14.614;2023-03-14T10:51:33;0.50;;;0.50;;
15878;SDS011;61999;51.514;14.614;2023-03-14T10:54:02;0.57;;;0.50;;
15878;SDS011;61999;51.514;14.614;2023-03-14T10:56:40;0.40;;;0.40;;
15878;SDS011;61999;51.514;14.614;2023-03-14T10:59:11;0.40;;;0.40;;
15878;SDS011;61999;51.514;14.614;2023-03-14T11:01:44;0.40;;;0.40;;
15878;SDS011;61999;51.514;14.614;2023-03-14T11:04:34;1.00;;;0.80;;
15878;SDS011;61999;51.514;14.614;2023-03-14T11:07:36;1.50;;;1.03;;
15878;SDS011;61999;51.514;14.614;2023-03-14T11:10:10;2.33;;;0.70;;
15878;SDS011;61999;51.514;14.614;2023-03-14T11:12:49;0.60;;;0.60;;
15878;SDS011;61999;51.514;14.614;2023-03-14T11:15:34;1.47;;;0.60;;
15878;SDS011;61999;51.514;14.614;2023-03-14T11:18:21;2.63;;;0.70;;
15878;SDS011;61999;51.514;14.614;2023-03-14T11:21:18;0.70;;;0.70;;
15878;SDS011;61999;51.514;14.614;2023-03-14T11:24:00;2.20;;;0.90;;
15878;SDS011;61999;51.514;14.614;2023-03-14T11:26:46;2.17;;;0.80;;
15878;SDS011;61999;51.514;14.614;2023-03-14T11:29:24;1.70;;;0.90;;
15878;SDS011;61999;51.514;14.614;2023-03-14T11:32:02;4.00;;;0.87;;
15878;SDS011;61999;51.514;14.614;2023-03-14T11:34:43;1.17;;;1.00;;
15878;SDS011;61999;51.514;14.614;2023-03-14T11:37:21;1.57;;;0.73;;
15878;SDS011;61999;51.514;14.614;2023-03-14T11:39:57;1.73;;;0.80;;
15878;SDS011;61999;51.514;14.614;2023-03-14T11:42:35;1.17;;;0.90;;
15878;SDS011;61999;51.514;14.614;2023-03-14T11:45:12;1.67;;;0.70;;
15878;SDS011;61999;51.514;14.614;2023-03-14T11:47:49;2.50;;;0.60;;
15878;SDS011;61999;51.514;14.614;2023-03-14T11:50:26;1.17;;;0.73;;
15878;SDS011;61999;51.514;14.614;2023-03-14T11:53:01;0.57;;;0.57;;
15878;SDS011;61999;51.514;14.614;2023-03-14T11:55:37;1.20;;;0.80;;
15878;SDS011;61999;51.514;14.614;2023-03-14T11:58:11;1.87;;;0.83;;
15878;SDS011;61999;51.514;14.614;2023-03-14T12:00:46;1.23;;;0.80;;
15878;SDS011;61999;51.514;14.614;2023-03-14T12:03:19;1.10;;;0.60;;
15878;SDS011;61999;51.514;14.614;2023-03-14T12:06:05;3.60;;;1.30;;
15878;SDS011;61999;51.514;14.614;2023-03-14T12:08:47;4.80;;;2.20;;
15878;SDS011;61999;51.514;14.614;2023-03-14T12:11:21;0.90;;;0.90;;
15878;SDS011;61999;51.514;14.614;2023-03-14T12:13:59;1.30;;;0.90;;
15878;SDS011;61999;51.514;14.614;2023-03-14T12:16:32;0.97;;;0.73;;
15878;SDS011;61999;51.514;14.614;2023-03-14T12:19:24;1.30;;;1.10;;
15878;SDS011;61999;51.514;14.614;2023-03-14T12:24:56;0.90;;;0.90;;
15878;SDS011;61999;51.514;14.614;2023-03-14T12:27:47;1.17;;;0.83;;
15878;SDS011;61999;51.514;14.614;2023-03-14T12:30:46;1.40;;;1.00;;
15878;SDS011;61999;51.514;14.614;2023-03-14T12:39:21;2.40;;;1.40;;
15878;SDS011;61999;51.514;14.614;2023-03-14T12:42:07;3.10;;;1.37;;
15878;SDS011;61999;51.514;14.614;2023-03-14T12:44:43;1.30;;;1.20;;
15878;SDS011;61999;51.514;14.614;2023-03-14T12:50:22;1.50;;;1.30;;
15878;SDS011;61999;51.514;14.614;2023-03-14T12:56:21;1.37;;;1.10;;
15878;SDS011;61999;51.514;14.614;2023-03-14T12:59:17;1.20;;;0.90;;
15878;SDS011;61999;51.514;14.614;2023-03-14T13:02:10;1.57;;;1.20;;
15878;SDS011;61999;51.514;14.614;2023-03-14T13:04:52;2.70;;;0.90;;
15878;SDS011;61999;51.514;14.614;2023-03-14T13:07:35;1.10;;;0.90;;
15878;SDS011;61999;51.514;14.614;2023-03-14T13:10:30;1.57;;;1.13;;
15878;SDS011;61999;51.514;14.614;2023-03-14T13:13:15;1.30;;;1.20;;
15878;SDS011;61999;51.514;14.614;2023-03-14T13:15:53;0.87;;;0.83;;
15878;SDS011;61999;51.514;14.614;2023-03-14T13:18:26;0.80;;;0.80;;
15878;SDS011;61999;51.514;14.614;2023-03-14T13:21:02;1.87;;;0.93;;
15878;SDS011;61999;51.514;14.614;2023-03-14T13:23:37;1.87;;;0.90;;
15878;SDS011;61999;51.514;14.614;2023-03-14T13:26:06;1.37;;;1.20;;
15878;SDS011;61999;51.514;14.614;2023-03-14T13:28:41;0.70;;;0.70;;
15878;SDS011;61999;51.514;14.614;2023-03-14T13:31:17;1.23;;;0.80;;
15878;SDS011;61999;51.514;14.614;2023-03-14T13:33:56;1.03;;;0.87;;
15878;SDS011;61999;51.514;14.614;2023-03-14T13:36:26;1.20;;;0.90;;
15878;SDS011;61999;51.514;14.614;2023-03-14T13:38:55;2.23;;;0.83;;
15878;SDS011;61999;51.514;14.614;2023-03-14T13:41:25;5.03;;;0.73;;
15878;SDS011;61999;51.514;14.614;2023-03-14T13:43:58;2.10;;;0.73;;
15878;SDS011;61999;51.514;14.614;2023-03-14T13:46:36;1.10;;;1.00;;
15878;SDS011;61999;51.514;14.614;2023-03-14T13:49:06;1.20;;;0.70;;
15878;SDS011;61999;51.514;14.614;2023-03-14T13:51:45;1.53;;;0.80;;
15878;SDS011;61999;51.514;14.614;2023-03-14T13:54:13;0.80;;;0.80;;
15878;SDS011;61999;51.514;14.614;2023-03-14T13:56:43;0.90;;;0.70;;
15878;SDS011;61999;51.514;14.614;2023-03-14T13:59:22;1.17;;;0.90;;
15878;SDS011;61999;51.514;14.614;2023-03-14T14:01:52;1.27;;;0.67;;
15878;SDS011;61999;51.514;14.614;2023-03-14T14:04:22;0.70;;;0.67;;
15878;SDS011;61999;51.514;14.614;2023-03-14T14:06:53;1.33;;;0.80;;
15878;SDS011;61999;51.514;14.614;2023-03-14T14:09:25;1.53;;;0.90;;
15878;SDS011;61999;51.514;14.614;2023-03-14T14:11:56;2.67;;;1.10;;
15878;SDS011;61999;51.514;14.614;2023-03-14T14:14:47;2.33;;;0.87;;
15878;SDS011;61999;51.514;14.614;2023-03-14T14:17:22;0.93;;;0.83;;
15878;SDS011;61999;51.514;14.614;2023-03-14T14:19:55;1.67;;;0.90;;
15878;SDS011;61999;51.514;14.614;2023-03-14T14:22:24;1.73;;;0.90;;
15878;SDS011;61999;51.514;14.614;2023-03-14T14:24:53;1.60;;;1.00;;
15878;SDS011;61999;51.514;14.614;2023-03-14T14:27:24;1.27;;;0.90;;
15878;SDS011;61999;51.514;14.614;2023-03-14T14:29:59;2.30;;;0.90;;
15878;SDS011;61999;51.514;14.614;2023-03-14T14:32:35;1.20;;;0.97;;
15878;SDS011;61999;51.514;14.614;2023-03-14T14:35:06;2.17;;;1.00;;
15878;SDS011;61999;51.514;14.614;2023-03-14T14:37:48;1.37;;;1.10;;
15878;SDS011;61999;51.514;14.614;2023-03-14T14:40:19;2.37;;;1.40;;
15878;SDS011;61999;51.514;14.614;2023-03-14T14:42:50;1.80;;;0.77;;
15878;SDS011;61999;51.514;14.614;2023-03-14T14:45:20;1.43;;;1.10;;
15878;SDS011;61999;51.514;14.614;2023-03-14T14:47:53;1.07;;;0.93;;
15878;SDS011;61999;51.514;14.614;2023-03-14T14:50:27;0.90;;;0.80;;
15878;SDS011;61999;51.514;14.614;2023-03-14T14:52:59;1.83;;;0.80;;
15878;SDS011;61999;51.514;14.614;2023-03-14T14:55:29;2.00;;;0.83;;
15878;SDS011;61999;51.514;14.614;2023-03-14T14:58:11;1.13;;;0.70;;
15878;SDS011;61999;51.514;14.614;2023-03-14T15:00:50;1.30;;;1.00;;
15878;SDS011;61999;51.514;14.614;2023-03-14T15:03:24;1.73;;;0.83;;
15878;SDS011;61999;51.514;14.614;2023-03-14T15:05:56;1.43;;;0.80;;
15878;SDS011;61999;51.514;14.614;2023-03-14T15:08:25;1.97;;;1.00;;
15878;SDS011;61999;51.514;14.614;2023-03-14T15:10:54;1.17;;;0.90;;
15878;SDS011;61999;51.514;14.614;2023-03-14T15:13:22;1.57;;;0.90;;
15878;SDS011;61999;51.514;14.614;2023-03-14T15:15:50;1.93;;;0.90;;
15878;SDS011;61999;51.514;14.614;2023-03-14T15:18:22;2.27;;;1.10;;